sensor_id;sensor_type;location;lat;lon;timestamp;temperature;humidity
25450;DHT22;13371;52.080;5.624;2023-02-07T00:00:14;5.20;97.40
25450;DHT22;13371;52.080;5.624;2023-02-07T00:02:47;5.10;97.20
25450;DHT22;13371;52.080;5.624;2023-02-07T00:05:13;5.00;97.60
25450;DHT22;13371;52.080;5.624;2023-02-07T00:07:40;5.10;97.50
25450;DHT22;13371;52.080;5.624;2023-02-07T00:10:07;5.00;97.50
25450;DHT22;13371;52.080;5.624;2023-02-07T00:12:33;4.90;97.70
25450;DHT22;13371;52.080;5.624;2023-02-07T00:14:59;5.00;97.60
25450;DHT22;13371;52.080;5.624;2023-02-07T00:17:24;5.00;97.50
25450;DHT22;13371;52.080;5.624;2023-02-07T00:19:50;4.90;97.60
25450;DHT22;13371;52.080;5.624;2023-02-07T00:22:15;4.90;97.30
25450;DHT22;13371;52.080;5.624;2023-02-07T00:24:41;5.00;97.20
25450;DHT22;13371;52.080;5.624;2023-02-07T00:27:06;4.90;97.60
25450;DHT22;13371;52.080;5.624;2023-02-07T00:29:32;4.90;97.70
25450;DHT22;13371;52.080;5.624;2023-02-07T00:31:58;4.60;98.00
25450;DHT22;13371;52.080;5.624;2023-02-07T00:34:23;4.70;98.10
25450;DHT22;13371;52.080;5.624;2023-02-07T00:36:49;4.70;98.00
25450;DHT22;13371;52.080;5.624;2023-02-07T00:39:15;4.70;97.90
25450;DHT22;13371;52.080;5.624;2023-02-07T00:41:42;4.60;97.90
25450;DHT22;13371;52.080;5.624;2023-02-07T00:44:08;4.70;98.20
25450;DHT22;13371;52.080;5.624;2023-02-07T00:46:35;4.40;98.80
25450;DHT22;13371;52.080;5.624;2023-02-07T00:49:01;4.30;99.90
25450;DHT22;13371;52.080;5.624;2023-02-07T00:51:27;4.20;99.90
25450;DHT22;13371;52.080;5.624;2023-02-07T00:53:54;4.20;99.90
25450;DHT22;13371;52.080;5.624;2023-02-07T00:56:21;3.90;99.90
25450;DHT22;13371;52.080;5.624;2023-02-07T00:58:46;4.00;99.90
25450;DHT22;13371;52.080;5.624;2023-02-07T01:01:13;4.20;99.90
25450;DHT22;13371;52.080;5.624;2023-02-07T01:03:39;4.30;99.90
25450;DHT22;13371;52.080;5.624;2023-02-07T01:06:05;4.40;99.90
25450;DHT22;13371;52.080;5.624;2023-02-07T01:08:31;4.40;99.90
25450;DHT22;13371;52.080;5.624;2023-02-07T01:11:00;4.50;99.90
25450;DHT22;13371;52.080;5.624;2023-02-07T01:13:26;4.30;99.90
25450;DHT22;13371;52.080;5.624;2023-02-07T01:15:51;4.40;99.90
25450;DHT22;13371;52.080;5.624;2023-02-07T01:18:17;4.60;99.90
25450;DHT22;13371;52.080;5.624;2023-02-07T01:20:42;4.70;99.90
25450;DHT22;13371;52.080;5.624;2023-02-07T01:23:09;4.80;99.80
25450;DHT22;13371;52.080;5.624;2023-02-07T01:25:36;4.80;99.60
25450;DHT22;13371;52.080;5.624;2023-02-07T01:28:02;4.80;99.50
25450;DHT22;13371;52.080;5.624;2023-02-07T01:30:28;4.90;99.20
25450;DHT22;13371;52.080;5.624;2023-02-07T01:32:54;4.60;99.10
25450;DHT22;13371;52.080;5.624;2023-02-07T01:35:19;4.70;98.90
25450;DHT22;13371;52.080;5.624;2023-02-07T01:37:45;4.70;98.70
25450;DHT22;13371;52.080;5.624;2023-02-07T01:40:11;4.50;99.20
25450;DHT22;13371;52.080;5.624;2023-02-07T01:42:37;4.40;99.00
25450;DHT22;13371;52.080;5.624;2023-02-07T01:45:21;4.40;99.00
25450;DHT22;13371;52.080;5.624;2023-02-07T01:47:47;4.50;99.00
25450;DHT22;13371;52.080;5.624;2023-02-07T01:50:13;4.40;99.00
25450;DHT22;13371;52.080;5.624;2023-02-07T01:52:40;4.30;98.80
25450;DHT22;13371;52.080;5.624;2023-02-07T01:55:10;4.50;98.60
25450;DHT22;13371;52.080;5.624;2023-02-07T01:57:36;4.30;98.30
25450;DHT22;13371;52.080;5.624;2023-02-07T02:00:04;4.40;99.10
25450;DHT22;13371;52.080;5.624;2023-02-07T02:02:32;4.50;98.50
25450;DHT22;13371;52.080;5.624;2023-02-07T02:04:59;4.40;98.30
25450;DHT22;13371;52.080;5.624;2023-02-07T02:07:26;4.50;98.20
25450;DHT22;13371;52.080;5.624;2023-02-07T02:09:53;4.40;97.70
25450;DHT22;13371;52.080;5.624;2023-02-07T02:15:38;4.00;98.50
25450;DHT22;13371;52.080;5.624;2023-02-07T02:18:21;4.10;98.40
25450;DHT22;13371;52.080;5.624;2023-02-07T02:32:05;3.80;98.50
25450;DHT22;13371;52.080;5.624;2023-02-07T02:40:30;4.00;97.60
25450;DHT22;13371;52.080;5.624;2023-02-07T02:42:53;4.00;97.70
25450;DHT22;13371;52.080;5.624;2023-02-07T02:45:30;4.00;97.70
25450;DHT22;13371;52.080;5.624;2023-02-07T02:47:57;3.80;97.60
25450;DHT22;13371;52.080;5.624;2023-02-07T02:50:26;4.00;97.80
25450;DHT22;13371;52.080;5.624;2023-02-07T02:52:53;3.90;97.50
25450;DHT22;13371;52.080;5.624;2023-02-07T03:04:09;3.40;98.40
25450;DHT22;13371;52.080;5.624;2023-02-07T03:12:22;3.30;98.10
25450;DHT22;13371;52.080;5.624;2023-02-07T03:15:07;3.40;98.00
25450;DHT22;13371;52.080;5.624;2023-02-07T03:20:44;3.30;98.40
25450;DHT22;13371;52.080;5.624;2023-02-07T03:23:13;3.50;98.20
25450;DHT22;13371;52.080;5.624;2023-02-07T03:25:40;3.60;97.80
25450;DHT22;13371;52.080;5.624;2023-02-07T03:28:08;3.50;97.70
25450;DHT22;13371;52.080;5.624;2023-02-07T03:30:35;3.50;97.60
25450;DHT22;13371;52.080;5.624;2023-02-07T03:33:06;3.30;97.80
25450;DHT22;13371;52.080;5.624;2023-02-07T03:38:13;3.60;97.30
25450;DHT22;13371;52.080;5.624;2023-02-07T03:40:45;3.40;97.80
25450;DHT22;13371;52.080;5.624;2023-02-07T03:43:19;3.40;97.50
25450;DHT22;13371;52.080;5.624;2023-02-07T03:45:46;3.40;97.70
25450;DHT22;13371;52.080;5.624;2023-02-07T03:48:12;3.30;97.40
25450;DHT22;13371;52.080;5.624;2023-02-07T03:50:37;3.30;97.60
25450;DHT22;13371;52.080;5.624;2023-02-07T03:53:03;3.20;97.80
25450;DHT22;13371;52.080;5.624;2023-02-07T03:55:30;3.20;97.50
25450;DHT22;13371;52.080;5.624;2023-02-07T03:57:56;3.20;97.90
25450;DHT22;13371;52.080;5.624;2023-02-07T04:00:21;3.50;97.40
25450;DHT22;13371;52.080;5.624;2023-02-07T04:02:47;3.30;97.60
25450;DHT22;13371;52.080;5.624;2023-02-07T04:05:12;3.40;97.40
25450;DHT22;13371;52.080;5.624;2023-02-07T04:07:38;3.40;97.30
25450;DHT22;13371;52.080;5.624;2023-02-07T04:10:04;3.20;97.70
25450;DHT22;13371;52.080;5.624;2023-02-07T04:12:30;2.90;98.20
25450;DHT22;13371;52.080;5.624;2023-02-07T04:15:01;2.90;97.90
25450;DHT22;13371;52.080;5.624;2023-02-07T04:17:27;2.70;98.10
25450;DHT22;13371;52.080;5.624;2023-02-07T04:19:53;2.70;98.30
25450;DHT22;13371;52.080;5.624;2023-02-07T04:22:19;2.80;98.20
25450;DHT22;13371;52.080;5.624;2023-02-07T04:24:45;2.90;98.10
25450;DHT22;13371;52.080;5.624;2023-02-07T04:27:11;2.90;98.10
25450;DHT22;13371;52.080;5.624;2023-02-07T04:29:36;2.90;98.10
25450;DHT22;13371;52.080;5.624;2023-02-07T04:32:02;3.00;97.70
25450;DHT22;13371;52.080;5.624;2023-02-07T04:34:28;3.00;97.40
25450;DHT22;13371;52.080;5.624;2023-02-07T04:36:53;2.60;98.50
25450;DHT22;13371;52.080;5.624;2023-02-07T04:39:19;2.60;98.50
25450;DHT22;13371;52.080;5.624;2023-02-07T04:41:45;2.80;98.50
25450;DHT22;13371;52.080;5.624;2023-02-07T04:44:10;3.00;98.10
25450;DHT22;13371;52.080;5.624;2023-02-07T04:46:36;3.00;97.90
25450;DHT22;13371;52.080;5.624;2023-02-07T04:49:01;2.90;98.20
25450;DHT22;13371;52.080;5.624;2023-02-07T04:51:28;2.90;98.50
25450;DHT22;13371;52.080;5.624;2023-02-07T04:53:54;3.10;98.10
25450;DHT22;13371;52.080;5.624;2023-02-07T04:56:21;2.90;98.30
25450;DHT22;13371;52.080;5.624;2023-02-07T04:58:46;3.20;98.10
25450;DHT22;13371;52.080;5.624;2023-02-07T05:01:12;3.10;97.70
25450;DHT22;13371;52.080;5.624;2023-02-07T05:03:38;2.80;98.20
25450;DHT22;13371;52.080;5.624;2023-02-07T05:06:03;2.70;98.40
25450;DHT22;13371;52.080;5.624;2023-02-07T05:08:29;2.80;98.40
25450;DHT22;13371;52.080;5.624;2023-02-07T05:10:55;3.00;98.10
25450;DHT22;13371;52.080;5.624;2023-02-07T05:13:22;2.80;97.90
25450;DHT22;13371;52.080;5.624;2023-02-07T05:15:48;2.90;98.10
25450;DHT22;13371;52.080;5.624;2023-02-07T05:18:14;3.00;97.50
25450;DHT22;13371;52.080;5.624;2023-02-07T05:20:40;2.80;97.50
25450;DHT22;13371;52.080;5.624;2023-02-07T05:23:05;2.70;97.60
25450;DHT22;13371;52.080;5.624;2023-02-07T05:25:31;2.80;97.70
25450;DHT22;13371;52.080;5.624;2023-02-07T05:27:57;2.90;97.70
25450;DHT22;13371;52.080;5.624;2023-02-07T05:30:22;2.80;97.10
25450;DHT22;13371;52.080;5.624;2023-02-07T05:32:48;2.30;97.90
25450;DHT22;13371;52.080;5.624;2023-02-07T05:35:43;2.30;98.70
25450;DHT22;13371;52.080;5.624;2023-02-07T05:38:13;2.60;98.30
25450;DHT22;13371;52.080;5.624;2023-02-07T05:40:40;2.70;97.80
25450;DHT22;13371;52.080;5.624;2023-02-07T05:43:06;2.60;97.80
25450;DHT22;13371;52.080;5.624;2023-02-07T05:45:32;2.60;98.10
25450;DHT22;13371;52.080;5.624;2023-02-07T05:47:58;2.60;97.80
25450;DHT22;13371;52.080;5.624;2023-02-07T05:50:24;2.70;97.60
25450;DHT22;13371;52.080;5.624;2023-02-07T05:52:50;2.60;97.70
25450;DHT22;13371;52.080;5.624;2023-02-07T05:55:16;2.60;97.70
25450;DHT22;13371;52.080;5.624;2023-02-07T05:57:43;2.80;97.50
25450;DHT22;13371;52.080;5.624;2023-02-07T06:00:15;2.70;97.20
25450;DHT22;13371;52.080;5.624;2023-02-07T06:02:41;2.60;97.30
25450;DHT22;13371;52.080;5.624;2023-02-07T06:05:08;2.60;97.10
25450;DHT22;13371;52.080;5.624;2023-02-07T06:07:35;2.50;97.00
25450;DHT22;13371;52.080;5.624;2023-02-07T06:10:02;2.40;97.30
25450;DHT22;13371;52.080;5.624;2023-02-07T06:12:27;2.50;97.30
25450;DHT22;13371;52.080;5.624;2023-02-07T06:14:53;2.30;97.10
25450;DHT22;13371;52.080;5.624;2023-02-07T06:17:18;2.50;97.20
25450;DHT22;13371;52.080;5.624;2023-02-07T06:19:44;2.60;96.90
25450;DHT22;13371;52.080;5.624;2023-02-07T06:22:10;2.50;96.60
25450;DHT22;13371;52.080;5.624;2023-02-07T06:24:35;2.40;96.90
25450;DHT22;13371;52.080;5.624;2023-02-07T06:27:01;2.50;97.00
25450;DHT22;13371;52.080;5.624;2023-02-07T06:29:26;2.40;96.60
25450;DHT22;13371;52.080;5.624;2023-02-07T06:31:52;2.30;96.90
25450;DHT22;13371;52.080;5.624;2023-02-07T06:34:18;2.20;97.00
25450;DHT22;13371;52.080;5.624;2023-02-07T06:36:43;2.10;97.00
25450;DHT22;13371;52.080;5.624;2023-02-07T06:39:09;2.20;97.20
25450;DHT22;13371;52.080;5.624;2023-02-07T06:41:34;2.30;97.10
25450;DHT22;13371;52.080;5.624;2023-02-07T06:44:00;2.20;96.70
25450;DHT22;13371;52.080;5.624;2023-02-07T06:46:25;2.20;96.90
25450;DHT22;13371;52.080;5.624;2023-02-07T06:48:51;2.10;96.90
25450;DHT22;13371;52.080;5.624;2023-02-07T06:51:16;2.10;96.90
25450;DHT22;13371;52.080;5.624;2023-02-07T06:53:42;2.20;96.90
25450;DHT22;13371;52.080;5.624;2023-02-07T06:56:07;2.20;96.70
25450;DHT22;13371;52.080;5.624;2023-02-07T06:58:33;2.00;96.90
25450;DHT22;13371;52.080;5.624;2023-02-07T07:01:02;2.00;97.10
25450;DHT22;13371;52.080;5.624;2023-02-07T07:03:28;2.00;97.00
25450;DHT22;13371;52.080;5.624;2023-02-07T07:05:55;1.90;97.30
25450;DHT22;13371;52.080;5.624;2023-02-07T07:08:20;2.00;97.40
25450;DHT22;13371;52.080;5.624;2023-02-07T07:10:46;2.00;97.10
25450;DHT22;13371;52.080;5.624;2023-02-07T07:13:11;2.10;97.00
25450;DHT22;13371;52.080;5.624;2023-02-07T07:15:37;1.90;96.90
25450;DHT22;13371;52.080;5.624;2023-02-07T07:18:02;1.80;97.30
25450;DHT22;13371;52.080;5.624;2023-02-07T07:20:28;1.20;99.30
25450;DHT22;13371;52.080;5.624;2023-02-07T07:22:53;1.30;99.60
25450;DHT22;13371;52.080;5.624;2023-02-07T07:25:19;0.70;99.90
25450;DHT22;13371;52.080;5.624;2023-02-07T07:27:45;0.90;99.90
25450;DHT22;13371;52.080;5.624;2023-02-07T07:30:11;0.80;99.90
25450;DHT22;13371;52.080;5.624;2023-02-07T07:32:37;1.20;99.90
25450;DHT22;13371;52.080;5.624;2023-02-07T07:35:03;1.40;99.90
25450;DHT22;13371;52.080;5.624;2023-02-07T07:37:30;1.40;99.90
25450;DHT22;13371;52.080;5.624;2023-02-07T07:39:56;1.00;99.90
25450;DHT22;13371;52.080;5.624;2023-02-07T07:42:21;1.10;99.90
25450;DHT22;13371;52.080;5.624;2023-02-07T07:44:47;0.90;99.90
25450;DHT22;13371;52.080;5.624;2023-02-07T07:47:12;0.80;99.90
25450;DHT22;13371;52.080;5.624;2023-02-07T07:49:39;0.90;99.90
25450;DHT22;13371;52.080;5.624;2023-02-07T07:52:04;1.00;99.90
25450;DHT22;13371;52.080;5.624;2023-02-07T07:54:30;1.00;99.90
25450;DHT22;13371;52.080;5.624;2023-02-07T07:56:55;1.10;99.90
25450;DHT22;13371;52.080;5.624;2023-02-07T07:59:21;1.20;99.90
25450;DHT22;13371;52.080;5.624;2023-02-07T08:01:47;1.50;99.90
25450;DHT22;13371;52.080;5.624;2023-02-07T08:04:13;1.00;99.90
25450;DHT22;13371;52.080;5.624;2023-02-07T08:06:38;1.60;99.90
25450;DHT22;13371;52.080;5.624;2023-02-07T08:09:04;1.60;99.90
25450;DHT22;13371;52.080;5.624;2023-02-07T08:11:30;1.80;99.90
25450;DHT22;13371;52.080;5.624;2023-02-07T08:13:55;3.20;99.90
25450;DHT22;13371;52.080;5.624;2023-02-07T08:16:21;3.70;99.90
25450;DHT22;13371;52.080;5.624;2023-02-07T08:18:46;4.80;99.90
25450;DHT22;13371;52.080;5.624;2023-02-07T08:21:12;5.40;95.30
25450;DHT22;13371;52.080;5.624;2023-02-07T08:23:37;6.70;94.80
25450;DHT22;13371;52.080;5.624;2023-02-07T08:26:03;7.00;92.00
25450;DHT22;13371;52.080;5.624;2023-02-07T08:28:30;7.10;92.90
25450;DHT22;13371;52.080;5.624;2023-02-07T08:31:03;7.00;91.70
25450;DHT22;13371;52.080;5.624;2023-02-07T08:33:29;6.20;94.50
25450;DHT22;13371;52.080;5.624;2023-02-07T08:35:55;7.70;92.40
25450;DHT22;13371;52.080;5.624;2023-02-07T08:38:21;6.50;92.00
25450;DHT22;13371;52.080;5.624;2023-02-07T08:40:46;7.00;92.50
25450;DHT22;13371;52.080;5.624;2023-02-07T08:43:13;6.80;92.40
25450;DHT22;13371;52.080;5.624;2023-02-07T08:45:44;5.00;94.70
25450;DHT22;13371;52.080;5.624;2023-02-07T08:48:11;5.10;96.80
25450;DHT22;13371;52.080;5.624;2023-02-07T08:50:36;3.80;99.70
25450;DHT22;13371;52.080;5.624;2023-02-07T08:53:02;4.20;99.60
25450;DHT22;13371;52.080;5.624;2023-02-07T08:55:27;5.60;97.20
25450;DHT22;13371;52.080;5.624;2023-02-07T08:57:53;5.00;97.20
25450;DHT22;13371;52.080;5.624;2023-02-07T09:00:19;5.30;97.90
25450;DHT22;13371;52.080;5.624;2023-02-07T09:02:44;5.20;96.20
25450;DHT22;13371;52.080;5.624;2023-02-07T09:05:10;5.20;97.00
25450;DHT22;13371;52.080;5.624;2023-02-07T09:07:36;5.60;97.40
25450;DHT22;13371;52.080;5.624;2023-02-07T09:10:03;6.00;96.50
25450;DHT22;13371;52.080;5.624;2023-02-07T09:12:31;5.90;96.10
25450;DHT22;13371;52.080;5.624;2023-02-07T09:14:57;5.80;95.80
25450;DHT22;13371;52.080;5.624;2023-02-07T09:17:22;5.90;94.90
25450;DHT22;13371;52.080;5.624;2023-02-07T09:19:48;5.90;95.90
25450;DHT22;13371;52.080;5.624;2023-02-07T09:22:14;5.40;96.20
25450;DHT22;13371;52.080;5.624;2023-02-07T09:24:39;4.40;98.60
25450;DHT22;13371;52.080;5.624;2023-02-07T09:27:05;4.40;99.20
25450;DHT22;13371;52.080;5.624;2023-02-07T09:29:30;4.90;98.30
25450;DHT22;13371;52.080;5.624;2023-02-07T09:31:56;5.10;98.50
25450;DHT22;13371;52.080;5.624;2023-02-07T09:34:22;5.20;96.90
25450;DHT22;13371;52.080;5.624;2023-02-07T09:36:47;5.70;97.80
25450;DHT22;13371;52.080;5.624;2023-02-07T09:39:14;6.20;96.20
25450;DHT22;13371;52.080;5.624;2023-02-07T09:47:10;5.60;97.50
25450;DHT22;13371;52.080;5.624;2023-02-07T09:52:24;4.70;97.40
25450;DHT22;13371;52.080;5.624;2023-02-07T09:54:54;4.80;99.10
25450;DHT22;13371;52.080;5.624;2023-02-07T09:57:25;5.10;98.00
25450;DHT22;13371;52.080;5.624;2023-02-07T09:59:53;5.00;98.60
25450;DHT22;13371;52.080;5.624;2023-02-07T10:02:29;6.20;97.20
25450;DHT22;13371;52.080;5.624;2023-02-07T10:05:00;6.60;94.90
25450;DHT22;13371;52.080;5.624;2023-02-07T10:07:26;6.60;94.20
25450;DHT22;13371;52.080;5.624;2023-02-07T10:09:52;5.70;93.90
25450;DHT22;13371;52.080;5.624;2023-02-07T10:12:39;5.00;97.00
25450;DHT22;13371;52.080;5.624;2023-02-07T10:18:22;5.80;96.90
25450;DHT22;13371;52.080;5.624;2023-02-07T10:23:57;5.10;96.70
25450;DHT22;13371;52.080;5.624;2023-02-07T10:31:39;5.80;96.10
25450;DHT22;13371;52.080;5.624;2023-02-07T10:34:13;6.10;96.10
25450;DHT22;13371;52.080;5.624;2023-02-07T10:36:43;7.00;95.30
25450;DHT22;13371;52.080;5.624;2023-02-07T10:39:17;8.00;92.60
25450;DHT22;13371;52.080;5.624;2023-02-07T10:41:45;8.40;91.80
25450;DHT22;13371;52.080;5.624;2023-02-07T10:44:14;9.00;88.90
25450;DHT22;13371;52.080;5.624;2023-02-07T10:46:42;8.90;86.70
25450;DHT22;13371;52.080;5.624;2023-02-07T10:49:38;9.10;87.40
25450;DHT22;13371;52.080;5.624;2023-02-07T10:52:30;9.40;85.90
25450;DHT22;13371;52.080;5.624;2023-02-07T10:55:00;9.00;87.90
25450;DHT22;13371;52.080;5.624;2023-02-07T10:57:27;8.90;88.40
25450;DHT22;13371;52.080;5.624;2023-02-07T11:02:51;7.60;87.60
25450;DHT22;13371;52.080;5.624;2023-02-07T11:10:33;6.80;90.80
25450;DHT22;13371;52.080;5.624;2023-02-07T11:13:00;7.40;91.90
25450;DHT22;13371;52.080;5.624;2023-02-07T11:15:47;7.20;90.40
25450;DHT22;13371;52.080;5.624;2023-02-07T11:18:32;8.20;90.00
25450;DHT22;13371;52.080;5.624;2023-02-07T11:23:47;7.90;87.50
25450;DHT22;13371;52.080;5.624;2023-02-07T11:26:16;6.70;90.40
25450;DHT22;13371;52.080;5.624;2023-02-07T11:28:42;5.90;91.40
25450;DHT22;13371;52.080;5.624;2023-02-07T11:31:11;6.70;93.40
25450;DHT22;13371;52.080;5.624;2023-02-07T11:33:39;7.40;90.30
25450;DHT22;13371;52.080;5.624;2023-02-07T11:36:08;7.30;91.20
25450;DHT22;13371;52.080;5.624;2023-02-07T11:39:01;8.00;89.70
25450;DHT22;13371;52.080;5.624;2023-02-07T11:41:30;8.80;86.40
25450;DHT22;13371;52.080;5.624;2023-02-07T11:44:15;8.20;85.90
25450;DHT22;13371;52.080;5.624;2023-02-07T11:46:44;7.90;87.10
25450;DHT22;13371;52.080;5.624;2023-02-07T11:51:55;7.10;90.90
25450;DHT22;13371;52.080;5.624;2023-02-07T11:54:22;7.90;88.40
25450;DHT22;13371;52.080;5.624;2023-02-07T11:56:58;8.40;88.30
25450;DHT22;13371;52.080;5.624;2023-02-07T11:59:26;7.70;86.90
25450;DHT22;13371;52.080;5.624;2023-02-07T12:01:58;7.20;86.80
25450;DHT22;13371;52.080;5.624;2023-02-07T12:04:37;7.60;87.10
25450;DHT22;13371;52.080;5.624;2023-02-07T12:09:59;6.70;88.40
25450;DHT22;13371;52.080;5.624;2023-02-07T12:15:41;7.70;90.30
25450;DHT22;13371;52.080;5.624;2023-02-07T12:18:18;8.10;86.90
25450;DHT22;13371;52.080;5.624;2023-02-07T12:21:40;9.10;84.50
25450;DHT22;13371;52.080;5.624;2023-02-07T12:24:08;9.90;83.20
25450;DHT22;13371;52.080;5.624;2023-02-07T12:26:39;10.80;79.30
25450;DHT22;13371;52.080;5.624;2023-02-07T12:32:48;10.40;80.00
25450;DHT22;13371;52.080;5.624;2023-02-07T12:37:58;11.40;73.20
25450;DHT22;13371;52.080;5.624;2023-02-07T12:40:33;10.10;72.20
25450;DHT22;13371;52.080;5.624;2023-02-07T12:43:15;10.70;75.50
25450;DHT22;13371;52.080;5.624;2023-02-07T13:02:39;13.00;67.30
25450;DHT22;13371;52.080;5.624;2023-02-07T13:05:37;12.30;66.80
25450;DHT22;13371;52.080;5.624;2023-02-07T13:08:20;12.50;66.20
25450;DHT22;13371;52.080;5.624;2023-02-07T13:16:11;10.60;74.00
25450;DHT22;13371;52.080;5.624;2023-02-07T13:18:56;10.80;71.40
25450;DHT22;13371;52.080;5.624;2023-02-07T13:21:39;11.10;72.40
25450;DHT22;13371;52.080;5.624;2023-02-07T13:24:13;11.40;72.20
25450;DHT22;13371;52.080;5.624;2023-02-07T13:26:41;10.90;69.30
25450;DHT22;13371;52.080;5.624;2023-02-07T13:29:13;10.40;73.90
25450;DHT22;13371;52.080;5.624;2023-02-07T13:31:50;10.90;72.60
25450;DHT22;13371;52.080;5.624;2023-02-07T13:34:22;11.10;74.30
25450;DHT22;13371;52.080;5.624;2023-02-07T13:36:49;11.10;71.80
25450;DHT22;13371;52.080;5.624;2023-02-07T13:45:05;11.50;72.40
25450;DHT22;13371;52.080;5.624;2023-02-07T13:52:59;10.40;74.60
25450;DHT22;13371;52.080;5.624;2023-02-07T13:55:36;11.30;72.80
25450;DHT22;13371;52.080;5.624;2023-02-07T13:58:03;10.90;71.60
25450;DHT22;13371;52.080;5.624;2023-02-07T14:03:32;11.10;69.30
25450;DHT22;13371;52.080;5.624;2023-02-07T14:06:25;10.90;75.90
25450;DHT22;13371;52.080;5.624;2023-02-07T14:09:16;11.10;72.50
25450;DHT22;13371;52.080;5.624;2023-02-07T14:11:56;10.90;70.30
25450;DHT22;13371;52.080;5.624;2023-02-07T14:14:30;10.20;71.80
25450;DHT22;13371;52.080;5.624;2023-02-07T14:17:07;9.90;71.90
25450;DHT22;13371;52.080;5.624;2023-02-07T14:22:21;10.40;72.80
25450;DHT22;13371;52.080;5.624;2023-02-07T14:27:37;10.70;71.50
25450;DHT22;13371;52.080;5.624;2023-02-07T14:32:41;9.50;74.20
25450;DHT22;13371;52.080;5.624;2023-02-07T14:40:17;10.00;72.20
25450;DHT22;13371;52.080;5.624;2023-02-07T14:43:05;10.30;71.60
25450;DHT22;13371;52.080;5.624;2023-02-07T14:45:38;10.20;71.60
25450;DHT22;13371;52.080;5.624;2023-02-07T14:48:06;9.70;71.50
25450;DHT22;13371;52.080;5.624;2023-02-07T14:50:52;10.00;71.40
25450;DHT22;13371;52.080;5.624;2023-02-07T14:53:18;10.10;71.20
25450;DHT22;13371;52.080;5.624;2023-02-07T14:55:52;9.10;73.10
25450;DHT22;13371;52.080;5.624;2023-02-07T14:58:40;9.40;74.30
25450;DHT22;13371;52.080;5.624;2023-02-07T15:01:11;9.40;72.70
25450;DHT22;13371;52.080;5.624;2023-02-07T15:03:37;9.50;73.30
25450;DHT22;13371;52.080;5.624;2023-02-07T15:06:16;9.00;74.70
25450;DHT22;13371;52.080;5.624;2023-02-07T15:08:58;7.90;75.30
25450;DHT22;13371;52.080;5.624;2023-02-07T15:11:25;7.80;77.00
25450;DHT22;13371;52.080;5.624;2023-02-07T15:14:00;7.40;79.60
25450;DHT22;13371;52.080;5.624;2023-02-07T15:18:57;7.00;78.90
25450;DHT22;13371;52.080;5.624;2023-02-07T15:21:42;6.70;80.00
25450;DHT22;13371;52.080;5.624;2023-02-07T15:24:37;7.10;80.30
25450;DHT22;13371;52.080;5.624;2023-02-07T15:27:05;7.40;79.40
25450;DHT22;13371;52.080;5.624;2023-02-07T15:29:34;8.00;78.00
25450;DHT22;13371;52.080;5.624;2023-02-07T15:32:20;7.50;76.90
25450;DHT22;13371;52.080;5.624;2023-02-07T15:34:46;7.40;78.80
25450;DHT22;13371;52.080;5.624;2023-02-07T15:37:15;7.50;77.90
25450;DHT22;13371;52.080;5.624;2023-02-07T15:39:43;7.80;77.00
25450;DHT22;13371;52.080;5.624;2023-02-07T15:42:14;7.70;77.50
25450;DHT22;13371;52.080;5.624;2023-02-07T15:44:49;7.30;79.30
25450;DHT22;13371;52.080;5.624;2023-02-07T15:47:35;7.20;79.50
25450;DHT22;13371;52.080;5.624;2023-02-07T15:50:19;7.50;79.90
25450;DHT22;13371;52.080;5.624;2023-02-07T15:52:49;7.80;79.10
25450;DHT22;13371;52.080;5.624;2023-02-07T15:57:47;7.20;81.00
25450;DHT22;13371;52.080;5.624;2023-02-07T16:00:23;7.00;82.10
25450;DHT22;13371;52.080;5.624;2023-02-07T16:02:57;7.40;82.10
25450;DHT22;13371;52.080;5.624;2023-02-07T16:07:52;7.50;80.80
25450;DHT22;13371;52.080;5.624;2023-02-07T16:13:30;7.60;79.90
25450;DHT22;13371;52.080;5.624;2023-02-07T16:15:40;7.00;80.70
25450;DHT22;13371;52.080;5.624;2023-02-07T16:18:40;7.40;81.20
25450;DHT22;13371;52.080;5.624;2023-02-07T16:21:27;7.90;80.60
25450;DHT22;13371;52.080;5.624;2023-02-07T16:24:00;7.00;81.70
25450;DHT22;13371;52.080;5.624;2023-02-07T16:26:28;7.20;82.10
25450;DHT22;13371;52.080;5.624;2023-02-07T16:28:54;7.30;81.80
25450;DHT22;13371;52.080;5.624;2023-02-07T16:31:20;7.60;82.20
25450;DHT22;13371;52.080;5.624;2023-02-07T16:33:46;7.90;81.80
25450;DHT22;13371;52.080;5.624;2023-02-07T16:36:16;8.00;81.50
25450;DHT22;13371;52.080;5.624;2023-02-07T16:38:42;8.10;81.60
25450;DHT22;13371;52.080;5.624;2023-02-07T16:41:26;8.20;81.40
25450;DHT22;13371;52.080;5.624;2023-02-07T16:43:56;8.20;81.30
25450;DHT22;13371;52.080;5.624;2023-02-07T16:46:23;8.20;81.30
25450;DHT22;13371;52.080;5.624;2023-02-07T16:48:48;8.20;81.30
25450;DHT22;13371;52.080;5.624;2023-02-07T16:51:14;8.10;81.50
25450;DHT22;13371;52.080;5.624;2023-02-07T16:53:40;8.10;81.50
25450;DHT22;13371;52.080;5.624;2023-02-07T16:56:07;7.90;81.70
25450;DHT22;13371;52.080;5.624;2023-02-07T16:58:34;7.90;82.40
25450;DHT22;13371;52.080;5.624;2023-02-07T17:01:00;7.80;82.30
25450;DHT22;13371;52.080;5.624;2023-02-07T17:03:27;7.60;82.20
25450;DHT22;13371;52.080;5.624;2023-02-07T17:05:53;7.50;82.90
25450;DHT22;13371;52.080;5.624;2023-02-07T17:08:21;7.50;83.10
25450;DHT22;13371;52.080;5.624;2023-02-07T17:11:01;7.50;83.00
25450;DHT22;13371;52.080;5.624;2023-02-07T17:13:30;7.40;83.20
25450;DHT22;13371;52.080;5.624;2023-02-07T17:15:55;7.40;83.30
25450;DHT22;13371;52.080;5.624;2023-02-07T17:18:23;7.20;83.60
25450;DHT22;13371;52.080;5.624;2023-02-07T17:20:49;7.20;83.50
25450;DHT22;13371;52.080;5.624;2023-02-07T17:23:15;7.00;83.80
25450;DHT22;13371;52.080;5.624;2023-02-07T17:25:41;6.80;84.20
25450;DHT22;13371;52.080;5.624;2023-02-07T17:28:11;6.00;86.20
25450;DHT22;13371;52.080;5.624;2023-02-07T17:30:39;5.90;88.20
25450;DHT22;13371;52.080;5.624;2023-02-07T17:33:05;6.20;87.80
25450;DHT22;13371;52.080;5.624;2023-02-07T17:35:31;6.10;86.80
25450;DHT22;13371;52.080;5.624;2023-02-07T17:37:57;6.00;87.40
25450;DHT22;13371;52.080;5.624;2023-02-07T17:40:27;6.10;87.60
25450;DHT22;13371;52.080;5.624;2023-02-07T17:42:53;5.80;88.50
25450;DHT22;13371;52.080;5.624;2023-02-07T17:45:19;5.60;89.20
25450;DHT22;13371;52.080;5.624;2023-02-07T17:47:44;5.70;89.80
25450;DHT22;13371;52.080;5.624;2023-02-07T17:50:18;5.90;89.20
25450;DHT22;13371;52.080;5.624;2023-02-07T17:52:45;5.60;89.40
25450;DHT22;13371;52.080;5.624;2023-02-07T17:55:11;5.40;90.20
25450;DHT22;13371;52.080;5.624;2023-02-07T17:57:36;5.40;90.60
25450;DHT22;13371;52.080;5.624;2023-02-07T18:00:03;5.50;90.20
25450;DHT22;13371;52.080;5.624;2023-02-07T18:02:29;5.50;90.00
25450;DHT22;13371;52.080;5.624;2023-02-07T18:04:54;5.50;90.30
25450;DHT22;13371;52.080;5.624;2023-02-07T18:07:22;5.60;90.10
25450;DHT22;13371;52.080;5.624;2023-02-07T18:09:48;5.60;90.10
25450;DHT22;13371;52.080;5.624;2023-02-07T18:12:13;5.60;90.00
25450;DHT22;13371;52.080;5.624;2023-02-07T18:14:39;5.30;90.70
25450;DHT22;13371;52.080;5.624;2023-02-07T18:17:04;5.40;90.70
25450;DHT22;13371;52.080;5.624;2023-02-07T18:19:30;5.30;90.70
25450;DHT22;13371;52.080;5.624;2023-02-07T18:21:56;4.50;92.10